Time;durP1;ratioP1;P1;durP2;ratioP2;P2;SDS_P1;SDS_P2;PMS_P1;PMS_P2;Temp;Humidity;BMP_temperature;BMP_pressure;BME280_temperature;BME280_humidity;BME280_pressure;Samples;Min_cycle;Max_cycle;Signal;HPM_P1;HPM_P2
2023/08/08 00:00:15;;;;;;;2.38;1.42;;;;;;;;;;618052;23;1445;-75
2023/08/08 00:00:34;;;;;;;1.90;1.40;;;;;;;;;;618792;23;1413;-74
2023/08/08 00:00:50;;;;;;;1.85;1.38;;;;;;;;;;618343;23;1210;-75
2023/08/08 00:01:07;;;;;;;1.95;1.50;;;;;;;;;;616128;23;1224;-76
2023/08/08 00:01:22;;;;;;;2.35;1.40;;;;;;;;;;613847;23;1324;-75
2023/08/08 00:01:47;;;;;;;2.40;1.48;;;;;;;;;;616610;23;1222;-75
2023/08/08 00:02:06;;;;;;;2.10;1.30;;;;;;;;;;614136;23;1353;-75
2023/08/08 00:02:25;;;;;;;1.50;1.30;;;;;;;;;;613011;23;1336;-76
2023/08/08 00:02:42;;;;;;;1.73;1.30;;;;;;;;;;616430;23;1267;-75
2023/08/08 00:02:57;;;;;;;1.88;1.30;;;;;;;;;;616199;23;1516;-76
2023/08/08 00:03:19;;;;;;;2.67;1.40;;;;;;;;;;619569;23;1213;-76
2023/08/08 00:03:41;;;;;;;2.60;1.73;;;;;;;;;;616313;23;1350;-75
2023/08/08 00:03:57;;;;;;;3.38;1.60;;;;;;;;;;619449;23;1404;-76
2023/08/08 00:04:12;;;;;;;2.85;1.50;;;;;;;;;;617006;23;1288;-76
2023/08/08 00:04:31;;;;;;;2.05;1.48;;;;;;;;;;616373;23;1201;-76
2023/08/08 00:04:54;;;;;;;2.20;1.40;;;;;;;;;;616390;23;1349;-75
2023/08/08 00:05:15;;;;;;;2.88;1.35;;;;;;;;;;613527;23;1512;-76
2023/08/08 00:05:31;;;;;;;3.85;1.50;;;;;;;;;;616767;23;1322;-76
2023/08/08 00:05:50;;;;;;;2.60;1.43;;;;;;;;;;610975;23;1258;-75
2023/08/08 00:06:09;;;;;;;2.13;1.40;;;;;;;;;;613298;23;1403;-76
2023/08/08 00:06:28;;;;;;;2.60;1.52;;;;;;;;;;616287;23;1280;-76
2023/08/08 00:06:50;;;;;;;3.28;1.50;;;;;;;;;;615834;23;1324;-76
2023/08/08 00:07:14;;;;;;;2.35;1.40;;;;;;;;;;616608;23;891;-75
2023/08/08 00:07:31;;;;;;;2.40;1.48;;;;;;;;;;619329;23;1248;-74
2023/08/08 00:07:46;;;;;;;2.10;1.50;;;;;;;;;;616828;23;1472;-76
2023/08/08 00:08:02;;;;;;;1.60;1.40;;;;;;;;;;618877;23;1249;-76
2023/08/08 00:08:21;;;;;;;2.20;1.40;;;;;;;;;;620588;23;1355;-76
2023/08/08 00:08:36;;;;;;;1.77;1.40;;;;;;;;;;623270;23;1338;-76
2023/08/08 00:08:52;;;;;;;1.45;1.30;;;;;;;;;;622011;23;1339;-74
2023/08/08 00:09:11;;;;;;;2.00;1.40;;;;;;;;;;619548;23;1359;-76
2023/08/08 00:09:27;;;;;;;2.63;1.50;;;;;;;;;;619824;23;1449;-75
2023/08/08 00:09:44;;;;;;;2.72;1.50;;;;;;;;;;616713;23;1415;-76
2023/08/08 00:09:59;;;;;;;2.80;1.50;;;;;;;;;;613997;23;1600;-76
2023/08/08 00:10:24;;;;;;;2.87;1.40;;;;;;;;;;616779;23;1218;-76
2023/08/08 00:10:40;;;;;;;2.95;1.40;;;;;;;;;;616292;23;1258;-76
2023/08/08 00:10:56;;;;;;;1.85;1.40;;;;;;;;;;616198;23;1181;-76
2023/08/08 00:11:11;;;;;;;2.60;1.50;;;;;;;;;;614158;23;1470;-75
2023/08/08 00:11:32;;;;;;;2.80;1.60;;;;;;;;;;611639;23;1466;-76
2023/08/08 00:11:54;;;;;;;2.28;1.58;;;;;;;;;;614162;23;1387;-76
2023/08/08 00:12:10;;;;;;;2.33;1.40;;;;;;;;;;617290;23;1380;-76
2023/08/08 00:12:29;;;;;;;2.40;1.50;;;;;;;;;;616792;23;1517;-76
2023/08/08 00:12:45;;;;;;;1.70;1.50;;;;;;;;;;620155;23;1355;-75
2023/08/08 00:13:04;;;;;;;1.98;1.40;;;;;;;;;;619339;23;1286;-77
2023/08/08 00:13:20;;;;;;;2.58;1.40;;;;;;;;;;616656;23;1359;-76
2023/08/08 00:13:39;;;;;;;2.60;1.40;;;;;;;;;;616647;23;1490;-75
2023/08/08 00:13:56;;;;;;;3.60;1.50;;;;;;;;;;619507;23;1982;-75
2023/08/08 00:14:12;;;;;;;3.60;1.38;;;;;;;;;;616419;23;1325;-76
2023/08/08 00:14:28;;;;;;;3.22;1.40;;;;;;;;;;616752;23;1436;-76
2023/08/08 00:14:48;;;;;;;3.85;1.40;;;;;;;;;;614174;23;1269;-76
2023/08/08 00:15:05;;;;;;;2.58;1.45;;;;;;;;;;613804;23;943;-76
2023/08/08 00:15:24;;;;;;;2.33;1.38;;;;;;;;;;613580;23;1261;-76
2023/08/08 00:15:45;;;;;;;2.72;1.40;;;;;;;;;;616516;23;1383;-76
2023/08/08 00:16:02;;;;;;;2.65;1.48;;;;;;;;;;616402;23;1395;-75
2023/08/08 00:16:21;;;;;;;2.35;1.45;;;;;;;;;;619622;23;1329;-75
2023/08/08 00:16:39;;;;;;;2.70;1.60;;;;;;;;;;616747;23;1264;-76
2023/08/08 00:17:00;;;;;;;1.70;1.40;;;;;;;;;;616366;23;1441;-76
2023/08/08 00:17:16;;;;;;;2.15;1.48;;;;;;;;;;613998;23;1340;-75
2023/08/08 00:17:32;;;;;;;2.40;1.50;;;;;;;;;;613548;23;975;-76
2023/08/08 00:17:48;;;;;;;2.10;1.40;;;;;;;;;;613863;23;1176;-76
2023/08/08 00:18:05;;;;;;;2.10;1.40;;;;;;;;;;614131;23;1347;-76
2023/08/08 00:18:29;;;;;;;1.80;1.40;;;;;;;;;;617193;23;1281;-75
2023/08/08 00:18:49;;;;;;;2.50;1.42;;;;;;;;;;616315;23;1565;-76
2023/08/08 00:19:07;;;;;;;1.63;1.42;;;;;;;;;;616937;23;903;-76
2023/08/08 00:19:23;;;;;;;2.50;1.50;;;;;;;;;;619077;23;1169;-76
2023/08/08 00:19:39;;;;;;;2.47;1.40;;;;;;;;;;619903;23;1256;-76
2023/08/08 00:19:58;;;;;;;2.17;1.40;;;;;;;;;;622807;23;1426;-75
2023/08/08 00:20:17;;;;;;;2.83;1.55;;;;;;;;;;622418;23;1355;-75
2023/08/08 00:20:39;;;;;;;3.15;1.50;;;;;;;;;;625276;23;1257;-76
2023/08/08 00:20:58;;;;;;;3.50;1.60;;;;;;;;;;619722;23;911;-76
2023/08/08 00:21:16;;;;;;;3.25;1.65;;;;;;;;;;619400;23;1590;-76
2023/08/08 00:21:35;;;;;;;2.58;1.60;;;;;;;;;;619541;23;1206;-75
2023/08/08 00:21:56;;;;;;;2.30;1.58;;;;;;;;;;615931;23;1291;-76
2023/08/08 00:22:15;;;;;;;2.55;1.52;;;;;;;;;;613636;23;1520;-76
2023/08/08 00:22:31;;;;;;;2.60;1.52;;;;;;;;;;611079;23;1616;-75
2023/08/08 00:22:47;;;;;;;2.15;1.50;;;;;;;;;;613711;23;1370;-76
2023/08/08 00:23:11;;;;;;;2.40;1.30;;;;;;;;;;613522;23;1421;-75
2023/08/08 00:23:30;;;;;;;3.97;1.52;;;;;;;;;;613613;23;1446;-75
2023/08/08 00:23:48;;;;;;;3.50;1.60;;;;;;;;;;616310;23;1219;-76
2023/08/08 00:24:10;;;;;;;2.03;1.40;;;;;;;;;;617683;23;1058;-76
2023/08/08 00:24:25;;;;;;;2.10;1.52;;;;;;;;;;618112;23;1201;-76
2023/08/08 00:24:43;;;;;;;2.00;1.60;;;;;;;;;;619614;23;1107;-76
2023/08/08 00:25:02;;;;;;;2.13;1.60;;;;;;;;;;621531;23;1086;-75
2023/08/08 00:25:21;;;;;;;2.38;1.60;;;;;;;;;;619667;23;1263;-76
2023/08/08 00:25:37;;;;;;;2.53;1.40;;;;;;;;;;617184;23;1433;-76
2023/08/08 00:25:55;;;;;;;1.70;1.30;;;;;;;;;;616843;23;1336;-76
2023/08/08 00:26:11;;;;;;;2.40;1.30;;;;;;;;;;616712;23;875;-76
2023/08/08 00:26:35;;;;;;;3.83;1.40;;;;;;;;;;615431;23;1502;-75
2023/08/08 00:26:53;;;;;;;2.70;1.52;;;;;;;;;;615836;23;1317;-76
2023/08/08 00:27:10;;;;;;;2.97;1.60;;;;;;;;;;614413;23;1298;-75
2023/08/08 00:27:28;;;;;;;2.60;1.48;;;;;;;;;;614366;23;1432;-75
2023/08/08 00:27:44;;;;;;;2.42;1.50;;;;;;;;;;615202;23;1246;-76
2023/08/08 00:28:02;;;;;;;2.08;1.45;;;;;;;;;;613586;23;1264;-75
2023/08/08 00:28:24;;;;;;;1.90;1.40;;;;;;;;;;616814;23;1367;-76
2023/08/08 00:28:40;;;;;;;2.15;1.40;;;;;;;;;;613532;23;1376;-75
2023/08/08 00:28:56;;;;;;;1.60;1.30;;;;;;;;;;613603;23;1232;-76
2023/08/08 00:29:14;;;;;;;2.10;1.40;;;;;;;;;;613631;23;1165;-75
2023/08/08 00:29:33;;;;;;;2.35;1.50;;;;;;;;;;613464;23;868;-76
2023/08/08 00:29:50;;;;;;;2.25;1.42;;;;;;;;;;613670;23;1285;-75
2023/08/08 00:30:09;;;;;;;3.13;1.65;;;;;;;;;;613695;23;1246;-75
2023/08/08 00:30:31;;;;;;;2.80;1.50;;;;;;;;;;614528;23;1372;-76
2023/08/08 00:30:50;;;;;;;4.30;1.60;;;;;;;;;;617253;23;1233;-76
2023/08/08 00:31:17;;;;;;;3.13;1.50;;;;;;;;;;619137;23;1426;-74
2023/08/08 00:31:33;;;;;;;2.20;1.50;;;;;;;;;;615884;23;1300;-76
2023/08/08 00:31:51;;;;;;;2.38;1.40;;;;;;;;;;619446;23;1273;-76
2023/08/08 00:32:10;;;;;;;2.70;1.38;;;;;;;;;;616480;23;1520;-76
2023/08/08 00:32:32;;;;;;;2.22;1.40;;;;;;;;;;619496;23;1558;-76
2023/08/08 00:32:47;;;;;;;2.75;1.52;;;;;;;;;;622546;23;1472;-76
2023/08/08 00:33:04;;;;;;;2.57;1.40;;;;;;;;;;616718;23;1437;-75
2023/08/08 00:33:20;;;;;;;2.15;1.40;;;;;;;;;;619201;23;1293;-76
2023/08/08 00:33:39;;;;;;;2.50;1.50;;;;;;;;;;619334;23;1339;-75
2023/08/08 00:34:00;;;;;;;3.20;1.50;;;;;;;;;;619504;23;1969;-76
2023/08/08 00:34:18;;;;;;;3.08;1.58;;;;;;;;;;620380;23;883;-74
2023/08/08 00:34:39;;;;;;;2.63;1.50;;;;;;;;;;619849;23;1344;-75
2023/08/08 00:34:55;;;;;;;2.30;1.45;;;;;;;;;;616863;23;1356;-75
2023/08/08 00:35:11;;;;;;;2.92;1.60;;;;;;;;;;617202;23;1380;-76
2023/08/08 00:35:29;;;;;;;2.80;1.60;;;;;;;;;;614738;23;1312;-76
2023/08/08 00:35:48;;;;;;;2.50;1.80;;;;;;;;;;614726;23;1331;-75
2023/08/08 00:36:04;;;;;;;2.53;1.75;;;;;;;;;;613607;23;1321;-76
2023/08/08 00:36:22;;;;;;;2.20;1.52;;;;;;;;;;613652;23;1385;-74
2023/08/08 00:36:38;;;;;;;2.72;1.50;;;;;;;;;;616990;23;1392;-76
2023/08/08 00:36:57;;;;;;;1.73;1.40;;;;;;;;;;616514;23;1234;-76
2023/08/08 00:37:16;;;;;;;2.38;1.58;;;;;;;;;;616565;23;1429;-76
2023/08/08 00:37:35;;;;;;;2.35;1.60;;;;;;;;;;617108;23;1242;-76
2023/08/08 00:37:51;;;;;;;2.72;1.60;;;;;;;;;;616730;23;1589;-75
2023/08/08 00:38:09;;;;;;;2.90;1.52;;;;;;;;;;617134;23;1413;-75
2023/08/08 00:38:33;;;;;;;2.15;1.40;;;;;;;;;;614187;23;1477;-75
2023/08/08 00:38:49;;;;;;;2.55;1.33;;;;;;;;;;613566;23;1156;-76
2023/08/08 00:39:07;;;;;;;3.28;1.25;;;;;;;;;;614171;23;1334;-76
2023/08/08 00:39:27;;;;;;;1.88;1.23;;;;;;;;;;610964;24;1193;-76
2023/08/08 00:39:51;;;;;;;1.98;1.40;;;;;;;;;;613500;23;963;-76
2023/08/08 00:40:08;;;;;;;2.92;1.50;;;;;;;;;;613695;23;1462;-75
2023/08/08 00:40:33;;;;;;;3.10;1.60;;;;;;;;;;613596;23;1540;-76
2023/08/08 00:40:49;;;;;;;2.08;1.45;;;;;;;;;;611406;23;1301;-75
2023/08/08 00:41:04;;;;;;;1.70;1.30;;;;;;;;;;613517;23;1337;-74
2023/08/08 00:41:21;;;;;;;2.30;1.50;;;;;;;;;;616530;23;1273;-75
2023/08/08 00:41:42;;;;;;;2.60;1.38;;;;;;;;;;616765;23;1230;-74
2023/08/08 00:41:59;;;;;;;3.72;1.60;;;;;;;;;;616641;23;1307;-76
2023/08/08 00:42:17;;;;;;;3.75;1.70;;;;;;;;;;618482;23;1506;-75
2023/08/08 00:42:36;;;;;;;3.13;1.60;;;;;;;;;;622849;23;1374;-75
2023/08/08 00:42:51;;;;;;;2.88;1.40;;;;;;;;;;619728;23;1288;-75
2023/08/08 00:43:07;;;;;;;3.10;1.40;;;;;;;;;;616834;23;1356;-75
2023/08/08 00:43:23;;;;;;;3.20;1.58;;;;;;;;;;616797;23;1280;-75
2023/08/08 00:43:38;;;;;;;3.80;1.60;;;;;;;;;;616847;23;972;-76
2023/08/08 00:43:54;;;;;;;3.38;1.50;;;;;;;;;;620030;23;1228;-76
2023/08/08 00:44:13;;;;;;;1.90;1.30;;;;;;;;;;613782;23;1404;-76
2023/08/08 00:44:28;;;;;;;3.10;1.50;;;;;;;;;;614165;23;1445;-76
2023/08/08 00:44:52;;;;;;;3.22;1.50;;;;;;;;;;617147;23;1143;-75
2023/08/08 00:45:11;;;;;;;1.83;1.48;;;;;;;;;;620024;23;1455;-76
2023/08/08 00:45:28;;;;;;;2.45;1.48;;;;;;;;;;619534;23;1359;-75
2023/08/08 00:46:09;;;;;;;1.90;1.35;;;;;;;;;;620088;23;927;-76
2023/08/08 00:46:25;;;;;;;2.08;1.45;;;;;;;;;;610276;24;895;-76
2023/08/08 00:46:41;;;;;;;3.33;1.42;;;;;;;;;;619560;23;1444;-76
2023/08/08 00:47:00;;;;;;;3.95;1.52;;;;;;;;;;617721;23;1284;-76
2023/08/08 00:47:16;;;;;;;2.50;1.50;;;;;;;;;;617246;23;1573;-74
2023/08/08 00:47:34;;;;;;;1.80;1.30;;;;;;;;;;619706;23;914;-76
2023/08/08 00:47:53;;;;;;;1.92;1.35;;;;;;;;;;616705;23;1356;-76
2023/08/08 00:48:09;;;;;;;1.77;1.35;;;;;;;;;;613588;23;1367;-76
2023/08/08 00:48:25;;;;;;;1.98;1.40;;;;;;;;;;611683;23;1467;-76
2023/08/08 00:48:41;;;;;;;1.92;1.45;;;;;;;;;;614129;23;1561;-75
2023/08/08 00:48:57;;;;;;;1.92;1.40;;;;;;;;;;613916;23;1371;-76
2023/08/08 00:49:13;;;;;;;1.77;1.38;;;;;;;;;;616849;23;1352;-76
2023/08/08 00:49:28;;;;;;;1.87;1.30;;;;;;;;;;619875;23;1277;-75
2023/08/08 00:49:46;;;;;;;1.95;1.33;;;;;;;;;;622286;23;1350;-76
2023/08/08 00:50:06;;;;;;;2.20;1.30;;;;;;;;;;619716;23;1410;-75
2023/08/08 00:50:23;;;;;;;2.67;1.30;;;;;;;;;;619362;23;1134;-75
2023/08/08 00:50:43;;;;;;;2.72;1.50;;;;;;;;;;619551;23;1367;-77
2023/08/08 00:51:02;;;;;;;3.25;1.58;;;;;;;;;;620578;23;1494;-75
2023/08/08 00:51:19;;;;;;;3.35;1.58;;;;;;;;;;619679;23;1462;-76
2023/08/08 00:51:38;;;;;;;2.97;1.40;;;;;;;;;;619947;23;1308;-76
2023/08/08 00:51:54;;;;;;;3.05;1.45;;;;;;;;;;619731;23;1415;-75
2023/08/08 00:52:19;;;;;;;2.57;1.50;;;;;;;;;;619704;23;1080;-75
2023/08/08 00:52:35;;;;;;;2.55;1.50;;;;;;;;;;621869;23;828;-74
2023/08/08 00:52:54;;;;;;;2.85;1.60;;;;;;;;;;619454;23;1398;-76
2023/08/08 00:53:10;;;;;;;2.72;1.60;;;;;;;;;;616452;23;1184;-75
2023/08/08 00:53:31;;;;;;;2.85;1.58;;;;;;;;;;617705;23;1455;-76
2023/08/08 00:53:50;;;;;;;2.95;1.55;;;;;;;;;;620481;23;1969;-75
2023/08/08 00:54:21;;;;;;;2.78;1.42;;;;;;;;;;616483;23;1335;-76
2023/08/08 00:54:40;;;;;;;2.50;1.40;;;;;;;;;;619359;23;1460;-74
2023/08/08 00:54:56;;;;;;;2.40;1.40;;;;;;;;;;616529;23;1275;-76
2023/08/08 00:55:18;;;;;;;2.33;1.50;;;;;;;;;;619731;23;954;-76
2023/08/08 00:55:39;;;;;;;2.20;1.48;;;;;;;;;;619614;23;863;-75
2023/08/08 00:55:55;;;;;;;1.30;1.20;;;;;;;;;;617272;23;1336;-76
2023/08/08 00:56:37;;;;;;;1.88;1.20;;;;;;;;;;620002;23;1200;-76
2023/08/08 00:56:55;;;;;;;2.53;1.40;;;;;;;;;;609815;23;1151;-75
2023/08/08 00:57:31;;;;;;;2.75;1.40;;;;;;;;;;619637;23;1475;-76
2023/08/08 00:57:47;;;;;;;1.80;1.40;;;;;;;;;;616430;23;1033;-74
2023/08/08 00:58:04;;;;;;;2.65;1.45;;;;;;;;;;617968;23;1363;-75
2023/08/08 00:58:20;;;;;;;2.20;1.45;;;;;;;;;;617213;23;1560;-76
2023/08/08 00:58:36;;;;;;;1.65;1.38;;;;;;;;;;614045;23;1385;-75
2023/08/08 00:58:52;;;;;;;2.30;1.33;;;;;;;;;;617105;23;1444;-76
2023/08/08 00:59:21;;;;;;;2.67;1.40;;;;;;;;;;616720;23;1209;-75
2023/08/08 00:59:37;;;;;;;2.47;1.50;;;;;;;;;;616605;23;1538;-76
2023/08/08 00:59:52;;;;;;;1.60;1.37;;;;;;;;;;616819;23;1241;-76
2023/08/08 01:00:11;;;;;;;1.63;1.30;;;;;;;;;;616808;23;1403;-76
2023/08/08 01:00:30;;;;;;;2.42;1.50;;;;;;;;;;619555;23;1356;-76
2023/08/08 01:01:06;;;;;;;2.10;1.40;;;;;;;;;;616485;23;1431;-76
2023/08/08 01:01:22;;;;;;;2.15;1.30;;;;;;;;;;616846;23;1291;-76
2023/08/08 01:01:38;;;;;;;2.95;1.52;;;;;;;;;;614353;23;1316;-76
2023/08/08 01:02:03;;;;;;;3.08;1.60;;;;;;;;;;613864;23;1375;-75
2023/08/08 01:02:19;;;;;;;2.55;1.40;;;;;;;;;;613487;23;1186;-76
2023/08/08 01:02:35;;;;;;;1.90;1.40;;;;;;;;;;614168;23;1542;-74
2023/08/08 01:02:53;;;;;;;1.90;1.40;;;;;;;;;;613794;23;1472;-75
2023/08/08 01:03:09;;;;;;;3.50;1.40;;;;;;;;;;617050;23;1053;-76
2023/08/08 01:03:29;;;;;;;3.85;1.60;;;;;;;;;;617299;23;1462;-76
2023/08/08 01:03:45;;;;;;;2.40;1.70;;;;;;;;;;613910;23;1471;-76
2023/08/08 01:04:01;;;;;;;1.88;1.40;;;;;;;;;;614781;23;1123;-75
2023/08/08 01:04:18;;;;;;;1.58;1.30;;;;;;;;;;617509;23;1365;-76
2023/08/08 01:04:36;;;;;;;1.80;1.40;;;;;;;;;;619362;23;891;-75
2023/08/08 01:04:52;;;;;;;1.70;1.30;;;;;;;;;;622969;23;1369;-76
2023/08/08 01:05:19;;;;;;;1.77;1.30;;;;;;;;;;619912;23;1260;-76
2023/08/08 01:06:03;;;;;;;3.58;1.50;;;;;;;;;;622600;23;1259;-76
2023/08/08 01:06:57;;;;;;;3.72;1.67;;;;;;;;;;622976;23;1460;-75
2023/08/08 01:07:47;;;;;;;2.55;1.40;;;;;;;;;;622599;23;1282;-76
2023/08/08 01:08:06;;;;;;;1.70;1.35;;;;;;;;;;619835;23;1296;-76
2023/08/08 01:08:51;;;;;;;1.85;1.48;;;;;;;;;;619164;23;1355;-76
2023/08/08 01:09:13;;;;;;;2.83;1.50;;;;;;;;;;621358;23;1116;-76
2023/08/08 01:10:06;;;;;;;;;;;;;;;;;;;;;
2023/08/08 01:10:38;;;;;;;2.30;1.60;;;;;;;;;;625021;23;919;-75
2023/08/08 01:10:54;;;;;;;2.67;1.52;;;;;;;;;;622598;23;1348;-76
2023/08/08 01:11:10;;;;;;;2.10;1.40;;;;;;;;;;619829;23;1320;-76
2023/08/08 01:11:34;;;;;;;2.30;1.40;;;;;;;;;;621888;23;906;-76
2023/08/08 01:11:55;;;;;;;3.03;1.40;;;;;;;;;;619962;23;1575;-76
2023/08/08 01:12:23;;;;;;;2.70;1.50;;;;;;;;;;619718;23;1147;-76
2023/08/08 01:12:46;;;;;;;2.35;1.55;;;;;;;;;;616706;23;1304;-75
2023/08/08 01:13:39;;;;;;;2.22;1.45;;;;;;;;;;620829;23;1400;-75
2023/08/08 01:13:56;;;;;;;1.85;1.40;;;;;;;;;;622514;23;1959;-76
2023/08/08 01:14:12;;;;;;;2.03;1.50;;;;;;;;;;617018;23;1435;-76
2023/08/08 01:14:43;;;;;;;2.00;1.50;;;;;;;;;;617317;23;1094;-76
2023/08/08 01:15:23;;;;;;;1.55;1.40;;;;;;;;;;621852;23;1503;-76
2023/08/08 01:15:42;;;;;;;1.40;1.20;;;;;;;;;;619257;23;1336;-76
2023/08/08 01:15:59;;;;;;;2.03;1.23;;;;;;;;;;622466;23;1545;-75
2023/08/08 01:16:17;;;;;;;2.40;1.30;;;;;;;;;;622786;23;1245;-76
2023/08/08 01:16:35;;;;;;;2.05;1.50;;;;;;;;;;619964;23;1458;-75
2023/08/08 01:16:57;;;;;;;2.30;1.50;;;;;;;;;;620168;23;982;-76
2023/08/08 01:17:14;;;;;;;2.17;1.48;;;;;;;;;;619438;23;884;-75
2023/08/08 01:17:36;;;;;;;2.35;1.40;;;;;;;;;;619723;23;1608;-76
2023/08/08 01:18:04;;;;;;;2.63;1.40;;;;;;;;;;620828;23;1589;-75
2023/08/08 01:18:19;;;;;;;2.00;1.50;;;;;;;;;;619813;23;839;-76
2023/08/08 01:18:39;;;;;;;2.03;1.40;;;;;;;;;;619825;23;1365;-76
2023/08/08 01:18:56;;;;;;;2.00;1.40;;;;;;;;;;619814;23;879;-75
2023/08/08 01:19:19;;;;;;;2.97;1.42;;;;;;;;;;616639;23;1292;-76
2023/08/08 01:19:45;;;;;;;3.17;1.50;;;;;;;;;;616698;23;1488;-76
2023/08/08 01:20:07;;;;;;;2.03;1.30;;;;;;;;;;613537;23;1457;-76
2023/08/08 01:20:23;;;;;;;3.15;1.30;;;;;;;;;;615201;23;1360;-77
2023/08/08 01:20:40;;;;;;;2.92;1.30;;;;;;;;;;619656;23;1241;-76
2023/08/08 01:20:57;;;;;;;1.83;1.40;;;;;;;;;;619115;23;890;-76
2023/08/08 01:21:16;;;;;;;3.28;1.60;;;;;;;;;;618455;23;1300;-76
2023/08/08 01:21:36;;;;;;;3.17;1.40;;;;;;;;;;621439;23;1210;-76
2023/08/08 01:21:53;;;;;;;2.67;1.40;;;;;;;;;;619862;23;1162;-76
2023/08/08 01:22:15;;;;;;;1.83;1.30;;;;;;;;;;619569;23;1450;-76
2023/08/08 01:22:48;;;;;;;1.38;1.20;;;;;;;;;;618669;23;752;-76
2023/08/08 01:23:15;;;;;;;2.50;1.30;;;;;;;;;;618632;23;856;-75
2023/08/08 01:23:41;;;;;;;1.60;1.30;;;;;;;;;;620206;23;1413;-76
2023/08/08 01:24:05;;;;;;;2.15;1.40;;;;;;;;;;624277;23;1339;-76
2023/08/08 01:24:23;;;;;;;2.40;1.60;;;;;;;;;;620952;23;1466;-74
2023/08/08 01:24:39;;;;;;;2.45;1.40;;;;;;;;;;619414;23;1256;-75
2023/08/08 01:24:56;;;;;;;4.23;1.50;;;;;;;;;;617251;23;1225;-76
2023/08/08 01:25:11;;;;;;;4.70;1.48;;;;;;;;;;616851;23;1146;-76
2023/08/08 01:25:27;;;;;;;2.60;1.33;;;;;;;;;;613349;23;1286;-76
2023/08/08 01:25:43;;;;;;;2.25;1.48;;;;;;;;;;612348;23;1384;-76
2023/08/08 01:25:59;;;;;;;2.13;1.50;;;;;;;;;;614196;23;1411;-75
2023/08/08 01:26:15;;;;;;;2.33;1.40;;;;;;;;;;614047;23;868;-76
2023/08/08 01:26:31;;;;;;;2.20;1.40;;;;;;;;;;615535;23;922;-76
2023/08/08 01:26:47;;;;;;;2.00;1.30;;;;;;;;;;617271;23;1414;-76
2023/08/08 01:27:05;;;;;;;1.52;1.20;;;;;;;;;;615597;23;1092;-76
2023/08/08 01:27:22;;;;;;;1.52;1.15;;;;;;;;;;617277;23;894;-75
2023/08/08 01:27:37;;;;;;;2.20;1.30;;;;;;;;;;618355;23;1216;-76
2023/08/08 01:28:03;;;;;;;4.55;1.50;;;;;;;;;;618806;23;903;-75
2023/08/08 01:28:23;;;;;;;2.05;1.35;;;;;;;;;;615758;23;1549;-76
2023/08/08 01:28:39;;;;;;;2.40;1.30;;;;;;;;;;613455;23;1427;-76
2023/08/08 01:28:54;;;;;;;2.15;1.40;;;;;;;;;;616591;23;855;-76
2023/08/08 01:29:10;;;;;;;2.20;1.40;;;;;;;;;;618035;23;1332;-75
2023/08/08 01:29:27;;;;;;;5.13;1.60;;;;;;;;;;615284;23;1202;-76
2023/08/08 01:29:42;;;;;;;5.32;1.67;;;;;;;;;;618757;23;1453;-76
2023/08/08 01:29:58;;;;;;;2.20;1.45;;;;;;;;;;619704;23;1337;-76
2023/08/08 01:30:14;;;;;;;1.65;1.38;;;;;;;;;;616908;23;1290;-76
2023/08/08 01:30:30;;;;;;;1.88;1.45;;;;;;;;;;615928;23;1174;-76
2023/08/08 01:30:46;;;;;;;2.33;1.40;;;;;;;;;;615306;23;1331;-76
2023/08/08 01:31:02;;;;;;;2.37;1.30;;;;;;;;;;615276;23;1249;-76
2023/08/08 01:31:20;;;;;;;2.20;1.38;;;;;;;;;;615163;23;836;-75
2023/08/08 01:31:36;;;;;;;1.58;1.40;;;;;;;;;;615660;23;1510;-75
2023/08/08 01:31:52;;;;;;;1.67;1.40;;;;;;;;;;614739;23;1235;-76
2023/08/08 01:32:10;;;;;;;3.07;1.40;;;;;;;;;;618995;23;1397;-75
2023/08/08 01:32:26;;;;;;;3.20;1.40;;;;;;;;;;618275;23;768;-76
2023/08/08 01:32:42;;;;;;;2.20;1.40;;;;;;;;;;618874;23;1213;-75
2023/08/08 01:33:00;;;;;;;2.42;1.42;;;;;;;;;;619213;23;1149;-76
2023/08/08 01:33:17;;;;;;;2.95;1.60;;;;;;;;;;619129;23;907;-76
2023/08/08 01:33:36;;;;;;;2.75;1.60;;;;;;;;;;619063;23;1194;-76
2023/08/08 01:33:55;;;;;;;2.03;1.50;;;;;;;;;;621719;23;1929;-76
2023/08/08 01:34:10;;;;;;;2.35;1.50;;;;;;;;;;621327;23;1452;-76
2023/08/08 01:34:26;;;;;;;2.80;1.40;;;;;;;;;;621747;23;780;-76
2023/08/08 01:34:42;;;;;;;2.05;1.38;;;;;;;;;;618246;23;1282;-75
2023/08/08 01:35:07;;;;;;;1.98;1.23;;;;;;;;;;619415;23;1506;-76
2023/08/08 01:35:25;;;;;;;1.80;1.30;;;;;;;;;;616703;23;1276;-76
2023/08/08 01:35:45;;;;;;;2.15;1.40;;;;;;;;;;612798;23;1415;-74
2023/08/08 01:36:07;;;;;;;2.47;1.50;;;;;;;;;;614379;23;967;-75
2023/08/08 01:36:30;;;;;;;2.97;1.60;;;;;;;;;;616565;23;903;-75
2023/08/08 01:37:02;;;;;;;4.22;1.60;;;;;;;;;;620045;23;843;-75
2023/08/08 01:37:47;;;;;;;2.42;1.50;;;;;;;;;;624560;23;1014;-75
2023/08/08 01:38:26;;;;;;;2.20;1.40;;;;;;;;;;626282;23;842;-76
2023/08/08 01:38:54;;;;;;;2.85;1.33;;;;;;;;;;622294;23;1441;-75
2023/08/08 01:39:20;;;;;;;2.92;1.33;;;;;;;;;;619222;23;1161;-76
2023/08/08 01:39:38;;;;;;;2.00;1.40;;;;;;;;;;623024;23;899;-76
2023/08/08 01:40:02;;;;;;;2.85;1.40;;;;;;;;;;619900;23;1373;-75
2023/08/08 01:40:25;;;;;;;3.05;1.40;;;;;;;;;;617175;23;907;-76
2023/08/08 01:41:05;;;;;;;2.08;1.30;;;;;;;;;;619049;23;1447;-75
2023/08/08 01:41:25;;;;;;;2.53;1.50;;;;;;;;;;616638;23;1505;-76
2023/08/08 01:41:51;;;;;;;2.80;1.40;;;;;;;;;;617037;23;900;-76
2023/08/08 01:42:18;;;;;;;1.90;1.30;;;;;;;;;;619873;23;1216;-76
2023/08/08 01:42:34;;;;;;;2.17;1.33;;;;;;;;;;620792;23;1287;-75
2023/08/08 01:42:53;;;;;;;1.80;1.30;;;;;;;;;;619454;23;1277;-74
2023/08/08 01:43:18;;;;;;;1.85;1.40;;;;;;;;;;619618;23;1200;-75
2023/08/08 01:43:35;;;;;;;1.73;1.40;;;;;;;;;;622969;23;1075;-76
2023/08/08 01:43:52;;;;;;;1.83;1.30;;;;;;;;;;620287;23;1368;-74
2023/08/08 01:44:08;;;;;;;2.08;1.38;;;;;;;;;;617322;23;1428;-75
2023/08/08 01:44:28;;;;;;;2.47;1.40;;;;;;;;;;616566;23;856;-75
2023/08/08 01:44:44;;;;;;;2.90;1.38;;;;;;;;;;615463;23;1467;-74
2023/08/08 01:45:01;;;;;;;2.70;1.30;;;;;;;;;;617269;23;1158;-76
2023/08/08 01:45:20;;;;;;;2.67;1.30;;;;;;;;;;617064;23;1588;-76
2023/08/08 01:45:37;;;;;;;2.15;1.27;;;;;;;;;;614486;23;1285;-75
2023/08/08 01:45:53;;;;;;;1.60;1.30;;;;;;;;;;614742;23;1165;-74
2023/08/08 01:46:10;;;;;;;2.70;1.40;;;;;;;;;;616440;23;1299;-75
2023/08/08 01:46:26;;;;;;;3.00;1.33;;;;;;;;;;617457;23;1427;-75
2023/08/08 01:46:42;;;;;;;2.30;1.30;;;;;;;;;;617046;23;1274;-74
2023/08/08 01:47:01;;;;;;;1.52;1.20;;;;;;;;;;614080;23;1339;-75
2023/08/08 01:47:29;;;;;;;1.83;1.30;;;;;;;;;;613719;23;1436;-75
2023/08/08 01:47:51;;;;;;;2.75;1.42;;;;;;;;;;616504;23;1482;-76
2023/08/08 01:48:11;;;;;;;3.25;1.40;;;;;;;;;;617190;23;872;-75
2023/08/08 01:48:30;;;;;;;2.30;1.30;;;;;;;;;;616628;23;1560;-75
2023/08/08 01:48:48;;;;;;;2.08;1.27;;;;;;;;;;613606;23;1253;-75
2023/08/08 01:49:04;;;;;;;2.70;1.40;;;;;;;;;;613630;23;1254;-75
2023/08/08 01:49:20;;;;;;;3.13;1.43;;;;;;;;;;617079;23;918;-75
2023/08/08 01:49:36;;;;;;;2.45;1.30;;;;;;;;;;618021;23;1147;-75
2023/08/08 01:49:52;;;;;;;2.60;1.30;;;;;;;;;;617242;23;1422;-75
2023/08/08 01:50:08;;;;;;;2.25;1.20;;;;;;;;;;616816;23;1356;-75
2023/08/08 01:50:25;;;;;;;1.63;1.20;;;;;;;;;;615500;23;1505;-75
2023/08/08 01:50:41;;;;;;;1.52;1.20;;;;;;;;;;618323;23;1383;-75
2023/08/08 01:50:56;;;;;;;1.75;1.27;;;;;;;;;;617080;23;1345;-75
2023/08/08 01:51:12;;;;;;;2.58;1.30;;;;;;;;;;616729;23;1288;-76
2023/08/08 01:51:37;;;;;;;3.20;1.40;;;;;;;;;;619717;23;1347;-75
2023/08/08 01:51:52;;;;;;;1.90;1.40;;;;;;;;;;619811;23;1038;-75
2023/08/08 01:52:08;;;;;;;1.80;1.42;;;;;;;;;;620197;23;844;-75
2023/08/08 01:52:24;;;;;;;2.10;1.40;;;;;;;;;;622856;23;1252;-75
2023/08/08 01:52:40;;;;;;;2.30;1.38;;;;;;;;;;622364;23;1288;-75
2023/08/08 01:53:19;;;;;;;3.17;1.40;;;;;;;;;;619727;23;1327;-75
2023/08/08 01:53:35;;;;;;;2.00;1.35;;;;;;;;;;620529;23;989;-75
2023/08/08 01:53:50;;;;;;;1.48;1.30;;;;;;;;;;617267;23;2124;-75
2023/08/08 01:54:06;;;;;;;1.80;1.30;;;;;;;;;;614095;23;1253;-75
2023/08/08 01:54:44;;;;;;;1.88;1.17;;;;;;;;;;616404;23;1195;-75
2023/08/08 01:55:01;;;;;;;2.70;1.20;;;;;;;;;;616401;23;1376;-75
2023/08/08 01:55:17;;;;;;;3.17;1.38;;;;;;;;;;616636;23;1086;-76
2023/08/08 01:55:32;;;;;;;4.00;1.50;;;;;;;;;;614379;23;1505;-75
2023/08/08 01:55:52;;;;;;;3.28;1.40;;;;;;;;;;616549;23;1308;-75
2023/08/08 01:56:08;;;;;;;1.70;1.20;;;;;;;;;;617281;23;1333;-75
2023/08/08 01:56:26;;;;;;;1.67;1.20;;;;;;;;;;613765;23;1301;-76
2023/08/08 01:56:42;;;;;;;4.00;1.40;;;;;;;;;;610895;23;1427;-74
2023/08/08 01:57:01;;;;;;;3.95;1.50;;;;;;;;;;613352;23;951;-75
2023/08/08 01:57:16;;;;;;;1.73;1.30;;;;;;;;;;611126;23;1602;-74
2023/08/08 01:57:32;;;;;;;2.40;1.33;;;;;;;;;;614276;23;1466;-75
2023/08/08 01:57:48;;;;;;;2.20;1.27;;;;;;;;;;614006;23;1375;-75
2023/08/08 01:58:06;;;;;;;1.77;1.17;;;;;;;;;;614507;23;1356;-74
2023/08/08 01:58:25;;;;;;;2.22;1.30;;;;;;;;;;616862;23;848;-75
2023/08/08 01:58:44;;;;;;;1.90;1.30;;;;;;;;;;617009;23;1463;-75
2023/08/08 01:59:00;;;;;;;1.73;1.23;;;;;;;;;;617853;23;1072;-75
2023/08/08 01:59:24;;;;;;;1.63;1.15;;;;;;;;;;616592;23;1183;-75
2023/08/08 01:59:40;;;;;;;2.78;1.33;;;;;;;;;;619023;23;1345;-75
2023/08/08 01:59:55;;;;;;;2.23;1.30;;;;;;;;;;619324;23;1259;-75
2023/08/08 02:00:12;;;;;;;1.77;1.30;;;;;;;;;;615910;23;1186;-75
2023/08/08 02:00:27;;;;;;;1.85;1.40;;;;;;;;;;619326;23;1256;-75
2023/08/08 02:00:46;;;;;;;1.50;1.23;;;;;;;;;;619059;23;1443;-76
2023/08/08 02:01:01;;;;;;;1.77;1.30;;;;;;;;;;622387;23;1230;-75
2023/08/08 02:01:17;;;;;;;1.98;1.30;;;;;;;;;;622769;23;812;-75